createdAt,value
2019-04-25T00:00:21.195Z,0.2
2019-04-25T00:01:31.289Z,0.1
2019-04-25T00:02:40.748Z,0.1
2019-04-25T00:03:51.401Z,0.2
2019-04-25T00:05:01.274Z,0.2
2019-04-25T00:06:12.155Z,0.2
2019-04-25T00:07:21.642Z,0.3
2019-04-25T00:08:31.173Z,0.1
2019-04-25T00:09:41.856Z,0.1
2019-04-25T00:10:51.695Z,0.1
2019-04-25T00:12:02.232Z,0.4
2019-04-25T00:13:11.790Z,0.2
2019-04-25T00:14:22.542Z,0.3
2019-04-25T00:15:31.992Z,0.1
2019-04-25T00:16:42.806Z,0.1
2019-04-25T00:17:52.183Z,0.1
2019-04-25T00:19:01.828Z,0.1
2019-04-25T00:20:11.357Z,0.3
2019-04-25T00:21:21.814Z,0.2
2019-04-25T00:22:31.676Z,0.2
2019-04-25T00:23:42.430Z,0.1
2019-04-25T00:24:52.926Z,0.2
2019-04-25T00:26:02.284Z,0.3
2019-04-25T00:27:11.837Z,0.2
2019-04-25T00:28:21.677Z,0.1
2019-04-25T00:29:31.847Z,0.3
2019-04-25T00:30:43.270Z,0.1
2019-04-25T00:31:53.140Z,0.2
2019-04-25T00:33:02.357Z,0.2
2019-04-25T00:34:12.136Z,0.2
2019-04-25T00:35:21.702Z,0.2
2019-04-25T00:36:31.829Z,0.6
2019-04-25T00:37:43.272Z,0.2
2019-04-25T00:38:52.360Z,0.2
2019-04-25T00:40:02.380Z,0.3
2019-04-25T00:41:11.898Z,0.3
2019-04-25T00:42:23.093Z,0.2
2019-04-25T00:43:31.960Z,0.2
2019-04-25T00:44:42.745Z,0.2
2019-04-25T00:45:52.697Z,0.3
2019-04-25T00:47:02.425Z,0.3
2019-04-25T00:48:12.338Z,0.1
2019-04-25T00:49:21.957Z,0.2
2019-04-25T00:50:32.019Z,0.1
2019-04-25T00:51:42.832Z,0.1
2019-04-25T00:52:53.349Z,0.6
2019-04-25T00:54:02.577Z,0.4
2019-04-25T00:55:13.191Z,0.3
2019-04-25T00:56:22.608Z,0.3
2019-04-25T00:57:32.185Z,0.2
2019-04-25T00:58:42.396Z,0.2
2019-04-25T00:59:53.111Z,0.2
2019-04-25T01:01:02.657Z,0.3
2019-04-25T01:02:12.174Z,0.2
2019-04-25T01:03:21.717Z,0.2
2019-04-25T01:04:31.542Z,0.5
2019-04-25T01:05:42.311Z,0.4
2019-04-25T01:06:51.963Z,1
2019-04-25T01:08:02.170Z,0.8
2019-04-25T01:09:12.433Z,0.7
2019-04-25T01:10:23.083Z,0.3
2019-04-25T01:11:32.316Z,0.2
2019-04-25T01:12:41.837Z,0.3
2019-04-25T01:13:52.441Z,0.3
2019-04-25T01:15:01.927Z,0.3
2019-04-25T01:16:11.967Z,0.2
2019-04-25T01:17:21.245Z,0.2
2019-04-25T01:18:31.480Z,0.5
2019-04-25T01:19:40.908Z,0.8
2019-04-25T01:20:51.413Z,1.6
2019-04-25T01:22:00.915Z,1.2
2019-04-25T01:23:10.412Z,0.9
2019-04-25T01:24:19.928Z,0.7
2019-04-25T01:25:39.121Z,0.7
2019-04-25T01:26:39.960Z,0.1
2019-04-25T01:27:49.744Z,0.3
2019-04-25T01:28:58.988Z,0.3
2019-04-25T01:30:08.548Z,0.6
2019-04-25T01:31:18.068Z,0.4
2019-04-25T01:32:27.584Z,0.2
2019-04-25T01:33:37.116Z,0.3
2019-04-25T01:34:47.014Z,0.2
2019-04-25T01:35:56.913Z,0.3
2019-04-25T01:37:05.668Z,0.2
2019-04-25T01:38:15.188Z,0.2
2019-04-25T01:39:24.698Z,0.2
2019-04-25T01:40:35.365Z,0.3
2019-04-25T01:41:44.747Z,0.3
2019-04-25T01:42:54.760Z,0.3
2019-04-25T01:44:04.499Z,0.1
2019-04-25T01:45:14.041Z,0.2
2019-04-25T01:46:24.266Z,0.3
2019-04-25T01:47:33.605Z,0.2
2019-04-25T01:48:43.331Z,0.2
2019-04-25T01:49:54.219Z,0.3
2019-04-25T01:51:04.084Z,0.4
2019-04-25T01:52:13.707Z,0.3
2019-04-25T01:53:24.116Z,0.2
2019-04-25T01:54:33.912Z,0.3
2019-04-25T01:55:53.241Z,0.2
2019-04-25T01:56:54.947Z,0.4
2019-04-25T01:58:03.984Z,0.4
2019-04-25T01:59:15.111Z,0.4
2019-04-25T02:00:23.971Z,0.5
2019-04-25T02:01:34.059Z,0.3
2019-04-25T02:02:43.491Z,0.8
2019-04-25T02:03:54.145Z,0.7
2019-04-25T02:05:04.740Z,0.4
2019-04-25T02:06:13.740Z,0.3
2019-04-25T02:07:23.336Z,0.4
2019-04-25T02:08:33.963Z,0.2
2019-04-25T02:09:43.545Z,0.3
2019-04-25T02:10:54.152Z,0.4
2019-04-25T02:12:04.780Z,0.2
2019-04-25T02:13:13.980Z,0.2
2019-04-25T02:14:23.667Z,0.2
2019-04-25T02:15:33.413Z,0.3
2019-04-25T02:16:43.746Z,0.4
2019-04-25T02:17:54.063Z,0.3
2019-04-25T02:19:03.988Z,0.4
2019-04-25T02:20:13.945Z,0.3
2019-04-25T02:21:23.590Z,0.2
2019-04-25T02:22:33.902Z,0.2
2019-04-25T02:23:44.148Z,0.2
2019-04-25T02:24:55.651Z,0.1
2019-04-25T02:26:15.126Z,0.3
2019-04-25T02:27:14.681Z,0.3
2019-04-25T02:28:24.196Z,0.2
2019-04-25T02:29:33.709Z,0.3
2019-04-25T02:30:45.313Z,0.4
2019-04-25T02:31:58.485Z,0.3
2019-04-25T02:33:08.539Z,0.4
2019-04-25T02:34:15.261Z,0.2
2019-04-25T02:35:26.462Z,0.3
2019-04-25T02:36:35.693Z,0.3
2019-04-25T02:37:45.261Z,0.3
2019-04-25T02:38:58.413Z,0.4
2019-04-25T02:40:07.640Z,0.3
2019-04-25T02:41:15.677Z,0.4
2019-04-25T02:42:25.191Z,0.2
2019-04-25T02:43:35.110Z,0.3
2019-04-25T02:44:44.550Z,0.2
2019-04-25T02:45:55.489Z,0.2
2019-04-25T02:47:06.822Z,0.2
2019-04-25T02:48:14.704Z,0.2
2019-04-25T02:49:32.319Z,0.3
2019-04-25T02:50:34.699Z,0.3
2019-04-25T02:51:45.062Z,0.4
2019-04-25T02:52:54.625Z,0.3
2019-04-25T02:54:06.582Z,0.2
2019-04-25T02:55:27.802Z,0.2
2019-04-25T02:56:31.047Z,0.3
2019-04-25T02:57:35.673Z,0.2
2019-04-25T02:58:45.189Z,0.4
2019-04-25T02:59:56.027Z,0.2
2019-04-25T03:01:16.131Z,0.2
2019-04-25T03:02:15.792Z,0.3
2019-04-25T03:03:25.187Z,0.3
2019-04-25T03:04:34.720Z,0.5
2019-04-25T03:05:45.438Z,0.3
2019-04-25T03:06:55.519Z,0.3
2019-04-25T03:08:06.885Z,0.3
2019-04-25T03:09:15.539Z,0.3
2019-04-25T03:10:26.637Z,0.3
2019-04-25T03:11:34.847Z,0.3
2019-04-25T03:12:44.710Z,0.3
2019-04-25T03:13:54.535Z,0.2
2019-04-25T03:15:06.318Z,0.3
2019-04-25T03:16:14.731Z,0.4
2019-04-25T03:17:24.712Z,0.3
2019-04-25T03:18:34.795Z,0.2
2019-04-25T03:19:44.273Z,0.2
2019-04-25T03:20:54.819Z,0.4
2019-04-25T03:22:08.254Z,0.4
2019-04-25T03:23:14.772Z,0.5
2019-04-25T03:24:25.002Z,0.3
2019-04-25T03:25:33.792Z,0.2
2019-04-25T03:26:44.291Z,0.2
2019-04-25T03:27:54.135Z,0.3
2019-04-25T03:29:04.712Z,0.5
2019-04-25T03:30:17.279Z,0.3
2019-04-25T03:31:27.061Z,0.2
2019-04-25T03:32:35.500Z,0.2
2019-04-25T03:33:46.163Z,0.3
2019-04-25T03:34:55.786Z,0.3
2019-04-25T03:36:06.532Z,0.5
2019-04-25T03:37:15.786Z,0.2
2019-04-25T03:38:25.283Z,0.3
2019-04-25T03:39:34.812Z,0.3
2019-04-25T03:40:44.314Z,0.5
2019-04-25T03:41:54.010Z,0.4
2019-04-25T03:43:05.016Z,0.3
2019-04-25T03:44:14.016Z,0.3
2019-04-25T03:45:23.670Z,0.3
2019-04-25T03:46:33.370Z,0.4
2019-04-25T03:47:43.185Z,0.5
2019-04-25T03:48:51.958Z,0.3
2019-04-25T03:50:01.570Z,0.3
2019-04-25T03:51:10.969Z,0.4
2019-04-25T03:52:20.468Z,0.3
2019-04-25T03:53:29.979Z,0.1
2019-04-25T03:54:39.529Z,0.3
2019-04-25T03:55:49.061Z,0.2
2019-04-25T03:56:58.555Z,0.2
2019-04-25T03:58:10.639Z,0.5
2019-04-25T03:59:18.554Z,0.3
2019-04-25T04:00:28.064Z,0.2
2019-04-25T04:01:37.580Z,0.4
2019-04-25T04:02:47.137Z,0.2
2019-04-25T04:03:56.684Z,0.4
2019-04-25T04:05:07.227Z,0.2
2019-04-25T04:06:16.673Z,0.3
2019-04-25T04:07:26.187Z,0.3
2019-04-25T04:08:35.817Z,0.3
2019-04-25T04:09:45.223Z,0.2
2019-04-25T04:10:54.928Z,0.6
2019-04-25T04:12:05.445Z,0.3
2019-04-25T04:13:15.826Z,0.4
2019-04-25T04:14:25.470Z,0.2
2019-04-25T04:15:34.991Z,0.4
2019-04-25T04:16:44.494Z,0.3
2019-04-25T04:17:53.992Z,0.2
2019-04-25T04:19:04.232Z,0.3
2019-04-25T04:20:15.036Z,0.3
2019-04-25T04:21:24.520Z,0.7
2019-04-25T04:22:34.154Z,0.4
2019-04-25T04:23:43.540Z,0.3
2019-04-25T04:24:53.780Z,0.3
2019-04-25T04:26:03.273Z,0.3
2019-04-25T04:27:12.208Z,0.2
2019-04-25T04:28:21.590Z,0.5
2019-04-25T04:29:31.099Z,0.3
2019-04-25T04:30:40.609Z,0.3
2019-04-25T04:31:50.123Z,0.4
2019-04-25T04:32:59.633Z,0.4
2019-04-25T04:34:09.156Z,0.4
2019-04-25T04:35:18.686Z,0.4
2019-04-25T04:36:28.196Z,0.5
2019-04-25T04:37:37.699Z,0.4
2019-04-25T04:38:47.274Z,0.2
2019-04-25T04:39:56.730Z,0.4
2019-04-25T04:41:06.220Z,0.3
2019-04-25T04:42:16.071Z,0.5
2019-04-25T04:43:25.618Z,0.2
2019-04-25T04:44:34.761Z,0.8
2019-04-25T04:45:45.527Z,0.3
2019-04-25T04:46:54.742Z,0.3
2019-04-25T04:48:04.275Z,0.3
2019-04-25T04:49:14.404Z,0.2
2019-04-25T04:50:25.295Z,0.2
2019-04-25T04:51:34.841Z,0.7
2019-04-25T04:52:44.368Z,0.2
2019-04-25T04:53:53.874Z,0.3
2019-04-25T04:55:07.911Z,1.4
2019-04-25T04:56:15.247Z,2.1
2019-04-25T04:57:31.830Z,1.8
2019-04-25T04:58:34.834Z,1.3
2019-04-25T04:59:44.354Z,1.1
2019-04-25T05:00:53.898Z,0.7
2019-04-25T05:02:03.420Z,0.6
2019-04-25T05:03:14.524Z,0.5
2019-04-25T05:04:25.069Z,0.6
2019-04-25T05:05:34.386Z,0.5
2019-04-25T05:06:43.749Z,0.4
2019-04-25T05:07:53.900Z,0.6
2019-04-25T05:09:03.481Z,1.1
2019-04-25T05:10:13.473Z,1.3
2019-04-25T05:11:23.875Z,1.1
2019-04-25T05:12:34.014Z,1.2
2019-04-25T05:13:44.068Z,1.1
2019-04-25T05:14:53.652Z,1.3
2019-04-25T05:16:03.159Z,0.9
2019-04-25T05:17:12.204Z,0.4
2019-04-25T05:18:34.303Z,0.7
2019-04-25T05:19:33.402Z,1.2
2019-04-25T05:20:43.929Z,1.4
2019-04-25T05:21:53.684Z,0.5
2019-04-25T05:23:03.141Z,0.5
2019-04-25T05:24:13.295Z,0.4
2019-04-25T05:25:24.296Z,0.4
2019-04-25T05:26:34.108Z,0.5
2019-04-25T05:27:57.416Z,0.7
2019-04-25T05:28:54.881Z,0.7
2019-04-25T05:30:04.024Z,0.4
2019-04-25T05:31:15.660Z,0.9
2019-04-25T05:32:24.877Z,0.6
2019-04-25T05:33:34.110Z,0.5
2019-04-25T05:34:44.087Z,0.3
2019-04-25T05:35:53.896Z,0.4
2019-04-25T05:37:03.795Z,0.2
2019-04-25T05:38:14.258Z,0.2
2019-04-25T05:39:24.095Z,0.2
2019-04-25T05:40:34.134Z,0.4
2019-04-25T05:41:44.203Z,0.4
2019-04-25T05:42:54.246Z,0.2
2019-04-25T05:44:04.442Z,0.4
2019-04-25T05:45:15.077Z,0.3
2019-04-25T05:46:25.351Z,0.1
2019-04-25T05:47:34.213Z,0.7
2019-04-25T05:48:43.862Z,1
2019-04-25T05:49:54.122Z,0.3
2019-04-25T05:51:03.944Z,1
2019-04-25T05:52:13.959Z,0.4
2019-04-25T05:53:24.115Z,1.1
2019-04-25T05:54:34.344Z,1.5
2019-04-25T05:55:44.157Z,0.5
2019-04-25T05:56:53.794Z,0.3
2019-04-25T05:58:03.815Z,0.3
2019-04-25T05:59:13.509Z,0.2
2019-04-25T06:00:24.765Z,0.1
2019-04-25T06:01:34.295Z,0.3
2019-04-25T06:02:44.270Z,0.1
2019-04-25T06:03:54.390Z,0.3
2019-04-25T06:05:03.896Z,0.2
2019-04-25T06:06:13.507Z,0.3
2019-04-25T06:07:25.282Z,0.4
2019-04-25T06:08:34.116Z,0.1
2019-04-25T06:09:44.346Z,0.3
2019-04-25T06:10:53.863Z,0.1
2019-04-25T06:12:03.114Z,0.1
2019-04-25T06:13:13.847Z,0.2
2019-04-25T06:14:23.965Z,0.3
2019-04-25T06:15:33.465Z,0.2
2019-04-25T06:16:43.571Z,0.2
2019-04-25T06:17:53.348Z,0.2
2019-04-25T06:19:13.240Z,0.4
2019-04-25T06:20:13.597Z,0.2
2019-04-25T06:21:24.226Z,0.3
2019-04-25T06:22:33.818Z,0.3
2019-04-25T06:23:44.321Z,0.3
2019-04-25T06:24:54.253Z,0.4
2019-04-25T06:26:16.781Z,0.2
2019-04-25T06:27:14.001Z,0.3
2019-04-25T06:28:23.991Z,0.4
2019-04-25T06:29:34.773Z,0.6
2019-04-25T06:30:44.289Z,0.3
2019-04-25T06:32:03.987Z,0.2
2019-04-25T06:33:03.533Z,0.6
2019-04-25T06:34:14.051Z,0.4
2019-04-25T06:35:25.092Z,0.4
2019-04-25T06:36:35.293Z,0.2
2019-04-25T06:37:44.540Z,0.4
2019-04-25T06:38:54.208Z,0.3
2019-04-25T06:40:05.044Z,0.2
2019-04-25T06:41:14.068Z,0.2
2019-04-25T06:42:24.755Z,0.1
2019-04-25T06:43:34.253Z,0.3
2019-04-25T06:44:43.674Z,0.2
2019-04-25T06:45:54.047Z,0.4
2019-04-25T06:47:03.587Z,0.3
2019-04-25T06:48:13.963Z,0.4
2019-04-25T06:49:24.354Z,0.2
2019-04-25T06:50:34.047Z,0.2
2019-04-25T06:51:43.985Z,0.1
2019-04-25T06:52:54.162Z,0.3
2019-04-25T06:54:03.654Z,0.1
2019-04-25T06:55:14.068Z,0.7
2019-04-25T06:56:24.936Z,0.3
2019-04-25T06:57:34.233Z,0.3
2019-04-25T06:58:43.973Z,0.1
2019-04-25T06:59:53.327Z,0.2
2019-04-25T07:01:03.367Z,0.1
2019-04-25T07:02:13.846Z,0.1
2019-04-25T07:03:23.286Z,0.3
2019-04-25T07:04:33.907Z,0.4
2019-04-25T07:05:43.973Z,0.2
2019-04-25T07:06:53.533Z,0.2
2019-04-25T07:08:03.307Z,0.2
2019-04-25T07:09:12.185Z,0.1
2019-04-25T07:10:23.152Z,0.1
2019-04-25T07:11:32.802Z,0.2
2019-04-25T07:12:44.268Z,0.1
2019-04-25T07:13:53.668Z,0.1
2019-04-25T07:15:03.870Z,0.1
2019-04-25T07:16:13.437Z,0.1
2019-04-25T07:17:24.163Z,0.1
2019-04-25T07:18:36.179Z,0.1
2019-04-25T07:19:44.029Z,0
2019-04-25T07:20:53.407Z,0.1
2019-04-25T07:22:03.887Z,0
2019-04-25T07:23:13.609Z,0.1
2019-04-25T07:24:24.166Z,0.1
2019-04-25T07:25:35.300Z,0.1
2019-04-25T07:26:44.236Z,0.1
2019-04-25T07:27:53.502Z,0.1
2019-04-25T07:29:03.267Z,0.2
2019-04-25T07:30:13.497Z,0.1
2019-04-25T07:31:23.313Z,0.2
2019-04-25T07:32:34.795Z,0.3
2019-04-25T07:33:43.717Z,0.4
2019-04-25T07:34:53.543Z,0.3
2019-04-25T07:36:04.216Z,0.2
2019-04-25T07:37:13.325Z,0.1
2019-04-25T07:38:23.739Z,0.2
2019-04-25T07:39:34.345Z,0.1
2019-04-25T07:40:43.724Z,0.2
2019-04-25T07:41:54.058Z,0.2
2019-04-25T07:43:03.178Z,0.1
2019-04-25T07:44:12.285Z,0.4
2019-04-25T07:45:21.773Z,0
2019-04-25T07:46:32.293Z,0.2
2019-04-25T07:47:41.888Z,0.3
2019-04-25T07:48:51.325Z,0.1
2019-04-25T07:50:00.826Z,0.4
2019-04-25T07:51:10.325Z,0.4
2019-04-25T07:52:19.857Z,0.2
2019-04-25T07:53:30.542Z,0.1
2019-04-25T07:54:39.989Z,0.1
2019-04-25T07:55:49.340Z,0.1
2019-04-25T07:56:58.848Z,0.1
2019-04-25T07:58:08.354Z,0.1
2019-04-25T07:59:17.862Z,0.4
2019-04-25T08:00:27.398Z,0.1
2019-04-25T08:01:37.855Z,0
2019-04-25T08:02:47.390Z,0.2
2019-04-25T08:03:56.883Z,0.2
2019-04-25T08:05:06.387Z,0.2
2019-04-25T08:06:15.889Z,0.4
2019-04-25T08:07:25.412Z,0.1
2019-04-25T08:08:35.003Z,0.2
2019-04-25T08:09:44.420Z,0.1
2019-04-25T08:10:53.925Z,0.2
2019-04-25T08:12:03.450Z,0.4
2019-04-25T08:13:13.310Z,0.2
2019-04-25T08:14:24.102Z,0.2
2019-04-25T08:15:33.793Z,0.2
2019-04-25T08:16:44.258Z,0.2
2019-04-25T08:17:53.999Z,0.1
2019-04-25T08:19:04.075Z,0.3
2019-04-25T08:20:13.522Z,0.3
2019-04-25T08:21:23.920Z,0.4
2019-04-25T08:22:34.460Z,0.5
2019-04-25T08:23:43.750Z,1
2019-04-25T08:24:53.838Z,1.1
2019-04-25T08:26:03.806Z,0.4
2019-04-25T08:27:13.369Z,0.2
2019-04-25T08:28:23.664Z,0.1
2019-04-25T08:29:34.679Z,0.1
2019-04-25T08:30:43.740Z,0.2
2019-04-25T08:31:53.618Z,0.3
2019-04-25T08:33:03.937Z,0.2
2019-04-25T08:34:14.439Z,0.3
2019-04-25T08:35:24.050Z,0.3
2019-04-25T08:36:36.647Z,0.2
2019-04-25T08:37:44.056Z,0.1
2019-04-25T08:38:53.510Z,0.1
2019-04-25T08:40:03.970Z,0.1
2019-04-25T08:41:14.012Z,0.2
2019-04-25T08:42:24.157Z,0.2
2019-04-25T08:43:34.759Z,0.2
2019-04-25T08:44:44.886Z,0.4
2019-04-25T08:45:54.475Z,0.2
2019-04-25T08:47:04.469Z,0.2
2019-04-25T08:48:13.641Z,0.1
2019-04-25T08:49:23.951Z,0.1
2019-04-25T08:50:36.806Z,0.2
2019-04-25T08:51:44.449Z,0.2
2019-04-25T08:52:54.367Z,0.2
2019-04-25T08:54:03.894Z,0.3
2019-04-25T08:55:14.213Z,0.3
2019-04-25T08:56:24.378Z,0.1
2019-04-25T08:57:34.089Z,0.1
2019-04-25T08:58:44.589Z,0.2
2019-04-25T08:59:53.317Z,0.2
2019-04-25T09:01:04.010Z,0.2
2019-04-25T09:02:13.609Z,0.1
2019-04-25T09:03:24.181Z,0.5
2019-04-25T09:04:35.595Z,0.4
2019-04-25T09:05:45.809Z,0.2
2019-04-25T09:06:54.380Z,0.5
2019-04-25T09:08:04.208Z,0.2
2019-04-25T09:09:13.746Z,0.2
2019-04-25T09:10:23.722Z,0.2
2019-04-25T09:11:34.742Z,0.1
2019-04-25T09:12:44.198Z,0.2
2019-04-25T09:13:53.793Z,0.3
2019-04-25T09:15:04.126Z,0.1
2019-04-25T09:16:15.368Z,0.2
2019-04-25T09:17:24.355Z,0.1
2019-04-25T09:18:36.001Z,0.2
2019-04-25T09:19:44.470Z,0.1
2019-04-25T09:20:54.482Z,0.2
2019-04-25T09:22:03.992Z,0.2
2019-04-25T09:23:13.671Z,0.1
2019-04-25T09:24:24.565Z,0.1
2019-04-25T09:25:34.772Z,0.1
2019-04-25T09:26:45.303Z,0.1
2019-04-25T09:27:54.577Z,0.2
2019-04-25T09:29:15.935Z,0.1
2019-04-25T09:30:14.519Z,0.1
2019-04-25T09:31:24.032Z,0.1
2019-04-25T09:32:33.854Z,0.1
2019-04-25T09:33:45.756Z,0.1
2019-04-25T09:34:55.500Z,0.1
2019-04-25T09:36:04.820Z,0.1
2019-04-25T09:37:14.235Z,0.1
2019-04-25T09:38:24.367Z,0.2
2019-04-25T09:39:35.568Z,0.1
2019-04-25T09:40:45.357Z,0.2
2019-04-25T09:41:54.753Z,0.2
2019-04-25T09:43:04.261Z,0.1
2019-04-25T09:44:14.408Z,0.1
2019-04-25T09:45:25.842Z,0.3
2019-04-25T09:46:34.370Z,0.2
2019-04-25T09:47:44.787Z,0.2
2019-04-25T09:48:54.770Z,0.1
2019-04-25T09:50:05.252Z,0.1
2019-04-25T09:51:14.771Z,0.2
2019-04-25T09:52:24.451Z,0.1
2019-04-25T09:53:34.853Z,0.1
2019-04-25T09:54:45.174Z,0.2
2019-04-25T09:55:54.277Z,0.1
2019-04-25T09:57:03.717Z,0.2
2019-04-25T09:58:13.570Z,0.2
2019-04-25T09:59:27.697Z,0.4
2019-04-25T10:00:33.844Z,0.1
2019-04-25T10:01:43.926Z,0.2
2019-04-25T10:02:55.461Z,0.3
2019-04-25T10:04:04.364Z,0.2
2019-04-25T10:05:13.986Z,0.3
2019-04-25T10:06:23.440Z,0
2019-04-25T10:07:32.924Z,0.1
2019-04-25T10:08:44.757Z,0.2
2019-04-25T10:09:54.402Z,0.2
2019-04-25T10:11:04.032Z,0.2
2019-04-25T10:12:14.513Z,0.2
2019-04-25T10:13:25.160Z,0.2
2019-04-25T10:14:34.016Z,0.2
2019-04-25T10:15:44.667Z,0.2
2019-04-25T10:16:54.013Z,0.1
2019-04-25T10:18:03.525Z,0.2
2019-04-25T10:19:13.316Z,0.2
2019-04-25T10:20:23.161Z,1
2019-04-25T10:21:32.066Z,0.1
2019-04-25T10:22:42.649Z,0.3
2019-04-25T10:23:53.438Z,0.1
2019-04-25T10:25:03.331Z,0.2
2019-04-25T10:26:12.071Z,0.3
2019-04-25T10:27:21.578Z,0.3
2019-04-25T10:28:31.093Z,0.2
2019-04-25T10:29:47.113Z,0.2
2019-04-25T10:30:51.072Z,0.3
2019-04-25T10:32:00.573Z,0.2
2019-04-25T10:33:10.108Z,0.2
2019-04-25T10:34:19.637Z,0.3
2019-04-25T10:35:29.148Z,0.2
2019-04-25T10:36:40.077Z,0.3
2019-04-25T10:37:49.161Z,0.1
2019-04-25T10:39:06.827Z,0.3
2019-04-25T10:40:09.125Z,0.2
2019-04-25T10:41:18.638Z,0.4
2019-04-25T10:42:28.131Z,0.2
2019-04-25T10:43:37.641Z,0.3
2019-04-25T10:44:48.337Z,0.1
2019-04-25T10:45:57.638Z,0.1
2019-04-25T10:47:07.147Z,0.2
2019-04-25T10:48:16.670Z,0.1
2019-04-25T10:49:26.165Z,0.2
2019-04-25T10:50:35.669Z,0.2
2019-04-25T10:51:45.760Z,0.2
2019-04-25T10:52:54.686Z,0.2
2019-04-25T10:54:04.253Z,0.1
2019-04-25T10:55:14.205Z,0.1
2019-04-25T10:56:24.297Z,0.2
2019-04-25T10:57:34.036Z,0.3
2019-04-25T10:58:44.361Z,0.3
2019-04-25T11:00:03.388Z,0.1
2019-04-25T11:01:04.210Z,0.1
2019-04-25T11:02:15.172Z,0.1
2019-04-25T11:03:26.371Z,0.2
2019-04-25T11:04:34.734Z,0.3
2019-04-25T11:05:45.149Z,0.2
2019-04-25T11:06:55.176Z,0.1
2019-04-25T11:08:04.388Z,0.1
2019-04-25T11:09:13.844Z,0.3
2019-04-25T11:10:23.612Z,0
2019-04-25T11:11:34.118Z,0.2
2019-04-25T11:12:44.285Z,0.1
2019-04-25T11:13:54.485Z,0.4
2019-04-25T11:15:04.311Z,0.1
2019-04-25T11:16:13.860Z,0.2
2019-04-25T11:17:24.213Z,0.1
2019-04-25T11:18:34.064Z,0
2019-04-25T11:19:44.493Z,0.1
2019-04-25T11:20:55.025Z,0.1
2019-04-25T11:22:04.349Z,0.1
2019-04-25T11:23:14.055Z,0.1
2019-04-25T11:24:23.754Z,0.1
2019-04-25T11:25:34.153Z,0.1
2019-04-25T11:26:47.056Z,0
2019-04-25T11:27:55.183Z,0.1
2019-04-25T11:29:04.383Z,0.3
2019-04-25T11:30:13.982Z,0.1
2019-04-25T11:31:23.627Z,0
2019-04-25T11:32:33.888Z,0.2
2019-04-25T11:33:43.924Z,0.2
2019-04-25T11:34:53.470Z,0.1
2019-04-25T11:36:04.172Z,0.5
2019-04-25T11:37:14.663Z,0
2019-04-25T11:38:23.776Z,0
2019-04-25T11:39:33.010Z,0.1
2019-04-25T11:40:47.511Z,0.1
2019-04-25T11:41:55.330Z,0.1
2019-04-25T11:43:04.525Z,0.1
2019-04-25T11:44:14.080Z,0.1
2019-04-25T11:45:23.586Z,0.1
2019-04-25T11:46:33.393Z,0.1
2019-04-25T11:47:43.081Z,0
2019-04-25T11:48:54.751Z,0
2019-04-25T11:50:03.969Z,0.2
2019-04-25T11:51:13.813Z,0
2019-04-25T11:52:27.949Z,0.2
2019-04-25T11:53:33.864Z,0.1
2019-04-25T11:54:44.589Z,0.2
2019-04-25T11:55:53.797Z,0.1
2019-04-25T11:57:03.704Z,0.1
2019-04-25T11:58:14.198Z,0.2
2019-04-25T11:59:23.715Z,0
2019-04-25T12:00:33.754Z,0.4
2019-04-25T12:01:45.288Z,0.1
2019-04-25T12:02:54.596Z,0.1
2019-04-25T12:04:04.112Z,0.1
2019-04-25T12:05:14.862Z,0.1
2019-04-25T12:06:24.281Z,0.1
2019-04-25T12:07:34.201Z,0.1
2019-04-25T12:08:43.787Z,0
2019-04-25T12:09:54.424Z,0.1
2019-04-25T12:11:03.823Z,0.1
2019-04-25T12:12:14.610Z,0
2019-04-25T12:13:24.233Z,0.2
2019-04-25T12:14:34.120Z,0.1
2019-04-25T12:15:45.995Z,0
2019-04-25T12:16:56.065Z,0.1
2019-04-25T12:18:04.818Z,0.1
2019-04-25T12:19:14.326Z,0.2
2019-04-25T12:20:23.830Z,0.1
2019-04-25T12:21:34.019Z,0.1
2019-04-25T12:22:43.797Z,0.1
2019-04-25T12:23:53.343Z,0.1
2019-04-25T12:25:04.514Z,0.2
2019-04-25T12:26:14.259Z,0
2019-04-25T12:27:23.869Z,0.1
2019-04-25T12:28:33.847Z,0.1
2019-04-25T12:29:43.971Z,0.1
2019-04-25T12:30:54.913Z,0
2019-04-25T12:32:04.090Z,0.1
2019-04-25T12:33:20.819Z,0
2019-04-25T12:34:24.324Z,0.1
2019-04-25T12:35:33.406Z,0
2019-04-25T12:36:44.303Z,0.2
2019-04-25T12:37:54.084Z,0.1
2019-04-25T12:39:03.886Z,0.1
2019-04-25T12:40:14.034Z,0.1
2019-04-25T12:41:22.986Z,0.1
2019-04-25T12:42:32.435Z,0
2019-04-25T12:43:43.847Z,0.2
2019-04-25T12:44:54.804Z,0.3
2019-04-25T12:46:03.928Z,0.2
2019-04-25T12:47:13.637Z,0.2
2019-04-25T12:48:23.427Z,0.1
2019-04-25T12:49:34.431Z,0
2019-04-25T12:50:43.936Z,0.1
2019-04-25T12:51:53.492Z,0
2019-04-25T12:53:03.659Z,0
2019-04-25T12:54:13.818Z,0.1
2019-04-25T12:55:23.913Z,0.1
2019-04-25T12:56:34.099Z,0.2
2019-04-25T12:57:43.032Z,0
2019-04-25T12:58:53.763Z,0.2
2019-04-25T13:00:04.145Z,0.1
2019-04-25T13:01:13.528Z,0
2019-04-25T13:02:23.507Z,0.1
2019-04-25T13:03:33.648Z,0.2
2019-04-25T13:04:44.267Z,0.1
2019-04-25T13:05:54.036Z,0.1
2019-04-25T13:07:03.983Z,0.1
2019-04-25T13:08:14.274Z,0
2019-04-25T13:09:23.115Z,0.2
2019-04-25T13:10:33.261Z,0
2019-04-25T13:11:43.434Z,0.1
2019-04-25T13:12:55.114Z,0.1
2019-04-25T13:14:03.155Z,0.1
2019-04-25T13:15:13.072Z,0.2
2019-04-25T13:16:22.189Z,0
2019-04-25T13:17:31.714Z,0.2
2019-04-25T13:18:41.229Z,0.1
2019-04-25T13:19:50.743Z,0.1
2019-04-25T13:21:00.502Z,0.3
2019-04-25T13:22:09.761Z,0.1
2019-04-25T13:23:19.273Z,0
2019-04-25T13:24:28.773Z,0.1
2019-04-25T13:25:38.291Z,0.2
2019-04-25T13:26:47.816Z,0
2019-04-25T13:27:57.443Z,0.6
2019-04-25T13:29:07.818Z,0
2019-04-25T13:30:17.366Z,0.1
2019-04-25T13:31:26.873Z,0
2019-04-25T13:32:36.391Z,0.1
2019-04-25T13:33:45.893Z,0.4
2019-04-25T13:34:56.381Z,0
2019-04-25T13:36:06.158Z,0.1
2019-04-25T13:37:16.522Z,0.1
2019-04-25T13:38:25.910Z,0.1
2019-04-25T13:39:35.432Z,0.2
2019-04-25T13:40:44.945Z,0.3
2019-04-25T13:41:57.270Z,0.1
2019-04-25T13:43:06.128Z,0
2019-04-25T13:44:15.474Z,0
2019-04-25T13:45:25.036Z,0.1
2019-04-25T13:46:34.531Z,0.1
2019-04-25T13:47:44.038Z,0.2
2019-04-25T13:48:54.336Z,0
2019-04-25T13:50:03.059Z,0.1
2019-04-25T13:51:13.966Z,0.2
2019-04-25T13:52:23.827Z,0.1
2019-04-25T13:53:33.518Z,0.2
2019-04-25T13:54:43.564Z,0.1
2019-04-25T13:55:52.605Z,0.3
2019-04-25T13:57:03.293Z,0.1
2019-04-25T13:58:14.167Z,0
2019-04-25T13:59:23.474Z,0.1
2019-04-25T14:00:33.287Z,0.1
2019-04-25T14:01:44.163Z,0.1
2019-04-25T14:02:53.651Z,0.1
2019-04-25T14:04:04.318Z,0
2019-04-25T14:05:14.608Z,0.3
2019-04-25T14:06:24.211Z,0.2
2019-04-25T14:07:33.735Z,0.1
2019-04-25T14:08:43.540Z,0.1
2019-04-25T14:09:53.206Z,0.2
2019-04-25T14:11:04.817Z,0.1
2019-04-25T14:12:13.940Z,0.2
2019-04-25T14:13:24.998Z,0.2
2019-04-25T14:14:34.313Z,0.2
2019-04-25T14:15:45.024Z,0.1
2019-04-25T14:16:54.582Z,0.1
2019-04-25T14:18:03.726Z,0.1
2019-04-25T14:19:12.996Z,0
2019-04-25T14:20:23.309Z,0
2019-04-25T14:21:33.475Z,0.1
2019-04-25T14:22:43.131Z,0.2
2019-04-25T14:23:54.086Z,0
2019-04-25T14:25:03.969Z,0.1
2019-04-25T14:26:12.869Z,0.2
2019-04-25T14:27:24.011Z,0.1
2019-04-25T14:28:35.207Z,0.2
2019-04-25T14:29:45.328Z,0.1
2019-04-25T14:30:54.852Z,0.1
2019-04-25T14:32:04.378Z,0
2019-04-25T14:33:13.874Z,0.1
2019-04-25T14:34:24.991Z,0.2
2019-04-25T14:35:33.897Z,0.2
2019-04-25T14:36:44.263Z,0.1
2019-04-25T14:37:53.899Z,0.2
2019-04-25T14:39:03.463Z,0
2019-04-25T14:40:13.951Z,0.1
2019-04-25T14:41:23.777Z,0.1
2019-04-25T14:42:33.215Z,0.3
2019-04-25T14:43:42.492Z,0.1
2019-04-25T14:44:51.991Z,0.1
2019-04-25T14:46:01.498Z,0
2019-04-25T14:47:11.013Z,0.1
2019-04-25T14:48:20.518Z,0.1
2019-04-25T14:49:30.494Z,0.1
2019-04-25T14:50:39.581Z,0.1
2019-04-25T14:51:49.179Z,0.2
2019-04-25T14:52:58.692Z,0.1
2019-04-25T14:54:08.630Z,0.3
2019-04-25T14:55:18.144Z,0.3
2019-04-25T14:56:27.986Z,0.4
2019-04-25T14:57:37.171Z,0.1
2019-04-25T14:58:46.678Z,0.3
2019-04-25T14:59:56.498Z,0.1
2019-04-25T15:01:06.000Z,0.2
2019-04-25T15:02:15.517Z,0
2019-04-25T15:03:26.028Z,0
2019-04-25T15:04:35.287Z,0
2019-04-25T15:05:44.544Z,0.1
2019-04-25T15:06:54.073Z,0.2
2019-04-25T15:08:03.604Z,0.2
2019-04-25T15:09:13.167Z,0.2
2019-04-25T15:10:23.055Z,0.1
2019-04-25T15:11:32.193Z,0.3
2019-04-25T15:12:41.712Z,0.2
2019-04-25T15:13:51.222Z,0.2
2019-04-25T15:15:00.749Z,0.1
2019-04-25T15:16:10.284Z,0.2
2019-04-25T15:17:19.827Z,0.2
2019-04-25T15:18:29.332Z,0.1
2019-04-25T15:19:38.835Z,0.1
2019-04-25T15:20:48.440Z,0.2
2019-04-25T15:21:57.951Z,0.1
2019-04-25T15:23:07.502Z,0.2
2019-04-25T15:24:17.030Z,0.1
2019-04-25T15:25:27.443Z,0.2
2019-04-25T15:26:36.123Z,0.2
2019-04-25T15:27:45.651Z,0.4
2019-04-25T15:28:56.174Z,0.1
2019-04-25T15:30:05.698Z,0.1
2019-04-25T15:31:15.267Z,0
2019-04-25T15:32:25.067Z,0.1
2019-04-25T15:33:34.311Z,0.1
2019-04-25T15:34:43.813Z,0.2
2019-04-25T15:35:53.353Z,0.1
2019-04-25T15:37:02.882Z,0.4
2019-04-25T15:38:12.408Z,0.1
2019-04-25T15:39:21.949Z,0.2
2019-04-25T15:40:31.445Z,0.2
2019-04-25T15:41:41.050Z,0
2019-04-25T15:42:50.611Z,0.1
2019-04-25T15:44:00.156Z,0.1
2019-04-25T15:45:09.680Z,0.1
2019-04-25T15:46:19.276Z,0.1
2019-04-25T15:47:29.637Z,0.4
2019-04-25T15:48:39.344Z,0.2
2019-04-25T15:49:48.871Z,0.2
2019-04-25T15:50:58.438Z,0.1
2019-04-25T15:52:08.009Z,0.2
2019-04-25T15:53:17.535Z,0.1
2019-04-25T15:54:27.597Z,0.2
2019-04-25T15:55:36.643Z,0.1
2019-04-25T15:56:46.206Z,0.1
2019-04-25T15:57:55.727Z,0.1
2019-04-25T15:59:05.257Z,0.3
2019-04-25T16:00:14.783Z,0.1
2019-04-25T16:01:24.285Z,0.2
2019-04-25T16:02:33.804Z,0.1
2019-04-25T16:03:43.317Z,0.2
2019-04-25T16:04:52.849Z,0.1
2019-04-25T16:06:02.478Z,0.2